sensor_id;sensor_type;location;lat;lon;timestamp;P1;durP1;ratioP1;P2;durP2;ratioP2
11933;SDS011;6026;48.784;9.198;2023-01-15T00:01:33;0.40;;;0.40;;
11933;SDS011;6026;48.784;9.198;2023-01-15T00:04:00;0.40;;;0.40;;
11933;SDS011;6026;48.784;9.198;2023-01-15T00:06:30;0.50;;;0.50;;
11933;SDS011;6026;48.784;9.198;2023-01-15T00:08:59;0.50;;;0.50;;
11933;SDS011;6026;48.784;9.198;2023-01-15T00:11:24;0.40;;;0.40;;
11933;SDS011;6026;48.784;9.198;2023-01-15T00:13:50;0.57;;;0.57;;
11933;SDS011;6026;48.784;9.198;2023-01-15T00:16:17;0.33;;;0.33;;
11933;SDS011;6026;48.784;9.198;2023-01-15T00:18:55;0.50;;;0.50;;
11933;SDS011;6026;48.784;9.198;2023-01-15T00:21:22;0.40;;;0.40;;
11933;SDS011;6026;48.784;9.198;2023-01-15T00:23:49;0.50;;;0.50;;
11933;SDS011;6026;48.784;9.198;2023-01-15T00:26:34;0.50;;;0.50;;
11933;SDS011;6026;48.784;9.198;2023-01-15T00:29:19;0.60;;;0.60;;
11933;SDS011;6026;48.784;9.198;2023-01-15T00:34:20;0.50;;;0.50;;
11933;SDS011;6026;48.784;9.198;2023-01-15T00:36:45;0.63;;;0.63;;
11933;SDS011;6026;48.784;9.198;2023-01-15T00:39:11;0.60;;;0.60;;
11933;SDS011;6026;48.784;9.198;2023-01-15T00:41:36;0.70;;;0.70;;
11933;SDS011;6026;48.784;9.198;2023-01-15T00:44:02;0.47;;;0.47;;
11933;SDS011;6026;48.784;9.198;2023-01-15T00:46:28;0.70;;;0.70;;
11933;SDS011;6026;48.784;9.198;2023-01-15T00:48:53;0.70;;;0.70;;
11933;SDS011;6026;48.784;9.198;2023-01-15T00:51:19;0.50;;;0.50;;
11933;SDS011;6026;48.784;9.198;2023-01-15T00:53:44;0.60;;;0.60;;
11933;SDS011;6026;48.784;9.198;2023-01-15T00:56:10;0.60;;;0.60;;
11933;SDS011;6026;48.784;9.198;2023-01-15T00:58:35;0.60;;;0.60;;
11933;SDS011;6026;48.784;9.198;2023-01-15T01:01:01;0.50;;;0.50;;
11933;SDS011;6026;48.784;9.198;2023-01-15T01:03:27;0.40;;;0.40;;
11933;SDS011;6026;48.784;9.198;2023-01-15T01:05:53;0.57;;;0.57;;
11933;SDS011;6026;48.784;9.198;2023-01-15T01:08:25;0.53;;;0.53;;
11933;SDS011;6026;48.784;9.198;2023-01-15T01:10:59;0.50;;;0.50;;
11933;SDS011;6026;48.784;9.198;2023-01-15T01:13:29;0.60;;;0.60;;
11933;SDS011;6026;48.784;9.198;2023-01-15T01:15:55;0.63;;;0.63;;
11933;SDS011;6026;48.784;9.198;2023-01-15T01:18:20;0.63;;;0.63;;
11933;SDS011;6026;48.784;9.198;2023-01-15T01:20:46;0.60;;;0.60;;
11933;SDS011;6026;48.784;9.198;2023-01-15T01:23:11;0.70;;;0.70;;
11933;SDS011;6026;48.784;9.198;2023-01-15T01:25:37;0.50;;;0.50;;
11933;SDS011;6026;48.784;9.198;2023-01-15T01:28:02;0.70;;;0.70;;
11933;SDS011;6026;48.784;9.198;2023-01-15T01:30:28;0.57;;;0.57;;
11933;SDS011;6026;48.784;9.198;2023-01-15T01:32:53;0.60;;;0.60;;
11933;SDS011;6026;48.784;9.198;2023-01-15T01:35:19;0.40;;;0.40;;
11933;SDS011;6026;48.784;9.198;2023-01-15T01:37:48;0.50;;;0.50;;
11933;SDS011;6026;48.784;9.198;2023-01-15T01:40:15;0.50;;;0.50;;
11933;SDS011;6026;48.784;9.198;2023-01-15T01:42:41;0.53;;;0.53;;
11933;SDS011;6026;48.784;9.198;2023-01-15T01:45:08;0.70;;;0.70;;
11933;SDS011;6026;48.784;9.198;2023-01-15T01:47:42;0.60;;;0.60;;
11933;SDS011;6026;48.784;9.198;2023-01-15T01:50:10;0.60;;;0.60;;
11933;SDS011;6026;48.784;9.198;2023-01-15T01:52:44;0.57;;;0.57;;
11933;SDS011;6026;48.784;9.198;2023-01-15T01:55:19;0.60;;;0.60;;
11933;SDS011;6026;48.784;9.198;2023-01-15T01:57:47;0.70;;;0.70;;
11933;SDS011;6026;48.784;9.198;2023-01-15T02:00:15;0.60;;;0.60;;
11933;SDS011;6026;48.784;9.198;2023-01-15T02:02:42;0.80;;;0.80;;
11933;SDS011;6026;48.784;9.198;2023-01-15T02:05:11;0.50;;;0.50;;
11933;SDS011;6026;48.784;9.198;2023-01-15T02:07:54;0.70;;;0.70;;
11933;SDS011;6026;48.784;9.198;2023-01-15T02:10:20;0.50;;;0.50;;
11933;SDS011;6026;48.784;9.198;2023-01-15T02:12:58;0.80;;;0.80;;
11933;SDS011;6026;48.784;9.198;2023-01-15T02:15:36;0.70;;;0.70;;
11933;SDS011;6026;48.784;9.198;2023-01-15T02:19:14;0.50;;;0.50;;
11933;SDS011;6026;48.784;9.198;2023-01-15T02:23:52;0.50;;;0.50;;
11933;SDS011;6026;48.784;9.198;2023-01-15T02:26:49;0.60;;;0.60;;
11933;SDS011;6026;48.784;9.198;2023-01-15T02:29:22;0.50;;;0.50;;
11933;SDS011;6026;48.784;9.198;2023-01-15T02:32:24;0.50;;;0.50;;
11933;SDS011;6026;48.784;9.198;2023-01-15T02:35:03;0.70;;;0.70;;
11933;SDS011;6026;48.784;9.198;2023-01-15T02:37:36;0.70;;;0.70;;
11933;SDS011;6026;48.784;9.198;2023-01-15T02:40:04;0.57;;;0.57;;
11933;SDS011;6026;48.784;9.198;2023-01-15T02:42:31;0.47;;;0.47;;
11933;SDS011;6026;48.784;9.198;2023-01-15T02:44:58;0.60;;;0.60;;
11933;SDS011;6026;48.784;9.198;2023-01-15T02:47:28;0.63;;;0.63;;
11933;SDS011;6026;48.784;9.198;2023-01-15T02:49:58;0.50;;;0.50;;
11933;SDS011;6026;48.784;9.198;2023-01-15T02:52:27;0.50;;;0.50;;
11933;SDS011;6026;48.784;9.198;2023-01-15T02:55:05;0.53;;;0.53;;
11933;SDS011;6026;48.784;9.198;2023-01-15T02:57:35;0.63;;;0.63;;
11933;SDS011;6026;48.784;9.198;2023-01-15T03:00:04;0.70;;;0.70;;
11933;SDS011;6026;48.784;9.198;2023-01-15T03:02:39;0.50;;;0.50;;
11933;SDS011;6026;48.784;9.198;2023-01-15T03:05:12;0.60;;;0.60;;
11933;SDS011;6026;48.784;9.198;2023-01-15T03:07:57;0.70;;;0.70;;
11933;SDS011;6026;48.784;9.198;2023-01-15T03:10:33;0.50;;;0.50;;
11933;SDS011;6026;48.784;9.198;2023-01-15T03:13:04;0.50;;;0.50;;
11933;SDS011;6026;48.784;9.198;2023-01-15T03:18:50;0.60;;;0.60;;
11933;SDS011;6026;48.784;9.198;2023-01-15T03:21:21;0.70;;;0.70;;
11933;SDS011;6026;48.784;9.198;2023-01-15T03:23:54;0.50;;;0.50;;
11933;SDS011;6026;48.784;9.198;2023-01-15T03:26:22;0.60;;;0.60;;
11933;SDS011;6026;48.784;9.198;2023-01-15T03:28:47;0.60;;;0.60;;
11933;SDS011;6026;48.784;9.198;2023-01-15T03:31:14;0.60;;;0.60;;
11933;SDS011;6026;48.784;9.198;2023-01-15T03:33:40;0.50;;;0.50;;
11933;SDS011;6026;48.784;9.198;2023-01-15T03:36:06;0.30;;;0.30;;
11933;SDS011;6026;48.784;9.198;2023-01-15T03:38:33;0.50;;;0.50;;
11933;SDS011;6026;48.784;9.198;2023-01-15T03:41:05;0.40;;;0.40;;
11933;SDS011;6026;48.784;9.198;2023-01-15T03:43:54;0.60;;;0.60;;
11933;SDS011;6026;48.784;9.198;2023-01-15T03:49:18;0.40;;;0.40;;
11933;SDS011;6026;48.784;9.198;2023-01-15T03:54:43;0.57;;;0.57;;
11933;SDS011;6026;48.784;9.198;2023-01-15T03:59:50;0.60;;;0.60;;
11933;SDS011;6026;48.784;9.198;2023-01-15T04:02:18;0.70;;;0.70;;
11933;SDS011;6026;48.784;9.198;2023-01-15T04:04:45;0.57;;;0.57;;
11933;SDS011;6026;48.784;9.198;2023-01-15T04:07:12;0.60;;;0.60;;
11933;SDS011;6026;48.784;9.198;2023-01-15T04:09:38;0.50;;;0.50;;
11933;SDS011;6026;48.784;9.198;2023-01-15T04:12:05;0.67;;;0.67;;
11933;SDS011;6026;48.784;9.198;2023-01-15T04:14:31;0.70;;;0.70;;
11933;SDS011;6026;48.784;9.198;2023-01-15T04:16:57;0.60;;;0.60;;
11933;SDS011;6026;48.784;9.198;2023-01-15T04:19:23;0.67;;;0.67;;
11933;SDS011;6026;48.784;9.198;2023-01-15T04:21:49;0.70;;;0.70;;
11933;SDS011;6026;48.784;9.198;2023-01-15T04:24:14;0.63;;;0.63;;
11933;SDS011;6026;48.784;9.198;2023-01-15T04:26:40;0.70;;;0.70;;
11933;SDS011;6026;48.784;9.198;2023-01-15T04:29:05;0.60;;;0.60;;
11933;SDS011;6026;48.784;9.198;2023-01-15T04:31:31;0.70;;;0.70;;
11933;SDS011;6026;48.784;9.198;2023-01-15T04:33:57;0.70;;;0.70;;
11933;SDS011;6026;48.784;9.198;2023-01-15T04:36:23;0.67;;;0.67;;
11933;SDS011;6026;48.784;9.198;2023-01-15T04:38:49;0.60;;;0.60;;
11933;SDS011;6026;48.784;9.198;2023-01-15T04:41:14;0.50;;;0.50;;
11933;SDS011;6026;48.784;9.198;2023-01-15T04:43:58;0.50;;;0.50;;
11933;SDS011;6026;48.784;9.198;2023-01-15T04:48:59;0.60;;;0.60;;
11933;SDS011;6026;48.784;9.198;2023-01-15T04:51:25;0.53;;;0.53;;
11933;SDS011;6026;48.784;9.198;2023-01-15T04:53:50;0.70;;;0.70;;
11933;SDS011;6026;48.784;9.198;2023-01-15T04:56:17;0.40;;;0.40;;
11933;SDS011;6026;48.784;9.198;2023-01-15T04:58:43;0.60;;;0.60;;
11933;SDS011;6026;48.784;9.198;2023-01-15T05:01:12;0.70;;;0.70;;
11933;SDS011;6026;48.784;9.198;2023-01-15T05:03:40;0.70;;;0.70;;
11933;SDS011;6026;48.784;9.198;2023-01-15T05:06:06;0.70;;;0.70;;
11933;SDS011;6026;48.784;9.198;2023-01-15T05:08:32;0.70;;;0.70;;
11933;SDS011;6026;48.784;9.198;2023-01-15T05:11:02;0.70;;;0.70;;
11933;SDS011;6026;48.784;9.198;2023-01-15T05:13:28;0.60;;;0.60;;
11933;SDS011;6026;48.784;9.198;2023-01-15T05:15:56;0.70;;;0.70;;
11933;SDS011;6026;48.784;9.198;2023-01-15T05:18:21;0.70;;;0.70;;
11933;SDS011;6026;48.784;9.198;2023-01-15T05:20:47;0.60;;;0.60;;
11933;SDS011;6026;48.784;9.198;2023-01-15T05:23:12;0.50;;;0.50;;
11933;SDS011;6026;48.784;9.198;2023-01-15T05:25:38;0.60;;;0.60;;
11933;SDS011;6026;48.784;9.198;2023-01-15T05:28:03;0.80;;;0.80;;
11933;SDS011;6026;48.784;9.198;2023-01-15T05:30:29;0.40;;;0.40;;
11933;SDS011;6026;48.784;9.198;2023-01-15T05:32:55;0.60;;;0.60;;
11933;SDS011;6026;48.784;9.198;2023-01-15T05:35:20;0.57;;;0.57;;
11933;SDS011;6026;48.784;9.198;2023-01-15T05:37:46;0.40;;;0.40;;
11933;SDS011;6026;48.784;9.198;2023-01-15T05:40:11;0.50;;;0.50;;
11933;SDS011;6026;48.784;9.198;2023-01-15T05:42:37;0.40;;;0.40;;
11933;SDS011;6026;48.784;9.198;2023-01-15T05:45:02;0.50;;;0.50;;
11933;SDS011;6026;48.784;9.198;2023-01-15T05:47:28;0.50;;;0.50;;
11933;SDS011;6026;48.784;9.198;2023-01-15T05:49:54;0.30;;;0.30;;
11933;SDS011;6026;48.784;9.198;2023-01-15T05:52:19;0.40;;;0.40;;
11933;SDS011;6026;48.784;9.198;2023-01-15T05:54:47;0.40;;;0.40;;
11933;SDS011;6026;48.784;9.198;2023-01-15T05:57:13;0.30;;;0.30;;
11933;SDS011;6026;48.784;9.198;2023-01-15T05:59:39;0.43;;;0.43;;
11933;SDS011;6026;48.784;9.198;2023-01-15T06:02:04;0.40;;;0.40;;
11933;SDS011;6026;48.784;9.198;2023-01-15T06:04:30;0.27;;;0.27;;
11933;SDS011;6026;48.784;9.198;2023-01-15T06:06:56;0.20;;;0.20;;
11933;SDS011;6026;48.784;9.198;2023-01-15T06:09:22;0.30;;;0.30;;
11933;SDS011;6026;48.784;9.198;2023-01-15T06:11:49;0.40;;;0.40;;
11933;SDS011;6026;48.784;9.198;2023-01-15T06:14:15;0.30;;;0.30;;
11933;SDS011;6026;48.784;9.198;2023-01-15T06:16:41;0.20;;;0.20;;
11933;SDS011;6026;48.784;9.198;2023-01-15T06:19:07;0.40;;;0.40;;
11933;SDS011;6026;48.784;9.198;2023-01-15T06:21:33;0.40;;;0.40;;
11933;SDS011;6026;48.784;9.198;2023-01-15T06:24:00;0.30;;;0.30;;
11933;SDS011;6026;48.784;9.198;2023-01-15T06:26:26;0.33;;;0.33;;
11933;SDS011;6026;48.784;9.198;2023-01-15T06:28:52;0.30;;;0.30;;
11933;SDS011;6026;48.784;9.198;2023-01-15T06:31:18;0.20;;;0.20;;
11933;SDS011;6026;48.784;9.198;2023-01-15T06:33:45;0.30;;;0.30;;
11933;SDS011;6026;48.784;9.198;2023-01-15T06:36:11;0.30;;;0.30;;
11933;SDS011;6026;48.784;9.198;2023-01-15T06:38:39;0.50;;;0.50;;
11933;SDS011;6026;48.784;9.198;2023-01-15T06:41:05;0.33;;;0.33;;
11933;SDS011;6026;48.784;9.198;2023-01-15T06:43:52;0.20;;;0.20;;
11933;SDS011;6026;48.784;9.198;2023-01-15T06:46:42;0.50;;;0.50;;
11933;SDS011;6026;48.784;9.198;2023-01-15T06:49:31;0.30;;;0.30;;
11933;SDS011;6026;48.784;9.198;2023-01-15T06:51:57;0.20;;;0.20;;
11933;SDS011;6026;48.784;9.198;2023-01-15T06:54:23;0.20;;;0.20;;
11933;SDS011;6026;48.784;9.198;2023-01-15T06:56:49;0.40;;;0.40;;
11933;SDS011;6026;48.784;9.198;2023-01-15T06:59:15;0.40;;;0.40;;
11933;SDS011;6026;48.784;9.198;2023-01-15T07:01:41;0.30;;;0.30;;
11933;SDS011;6026;48.784;9.198;2023-01-15T07:04:06;0.10;;;0.10;;
11933;SDS011;6026;48.784;9.198;2023-01-15T07:06:32;0.20;;;0.20;;
11933;SDS011;6026;48.784;9.198;2023-01-15T07:08:57;0.20;;;0.20;;
11933;SDS011;6026;48.784;9.198;2023-01-15T07:11:23;0.20;;;0.20;;
11933;SDS011;6026;48.784;9.198;2023-01-15T07:13:49;0.30;;;0.30;;
11933;SDS011;6026;48.784;9.198;2023-01-15T07:16:14;0.10;;;0.10;;
11933;SDS011;6026;48.784;9.198;2023-01-15T07:18:53;0.30;;;0.30;;
11933;SDS011;6026;48.784;9.198;2023-01-15T07:21:19;0.30;;;0.30;;
11933;SDS011;6026;48.784;9.198;2023-01-15T07:23:45;0.10;;;0.10;;
11933;SDS011;6026;48.784;9.198;2023-01-15T07:26:11;0.20;;;0.20;;
11933;SDS011;6026;48.784;9.198;2023-01-15T07:28:37;0.10;;;0.10;;
11933;SDS011;6026;48.784;9.198;2023-01-15T07:31:02;0.30;;;0.30;;
11933;SDS011;6026;48.784;9.198;2023-01-15T07:33:28;0.20;;;0.20;;
11933;SDS011;6026;48.784;9.198;2023-01-15T07:35:53;0.07;;;0.07;;
11933;SDS011;6026;48.784;9.198;2023-01-15T07:38:20;0.20;;;0.20;;
11933;SDS011;6026;48.784;9.198;2023-01-15T07:40:46;0.20;;;0.20;;
11933;SDS011;6026;48.784;9.198;2023-01-15T07:43:31;0.40;;;0.40;;
11933;SDS011;6026;48.784;9.198;2023-01-15T07:46:15;0.20;;;0.20;;
11933;SDS011;6026;48.784;9.198;2023-01-15T07:48:59;0.20;;;0.20;;
11933;SDS011;6026;48.784;9.198;2023-01-15T07:51:43;0.40;;;0.40;;
11933;SDS011;6026;48.784;9.198;2023-01-15T07:54:09;0.20;;;0.20;;
11933;SDS011;6026;48.784;9.198;2023-01-15T07:56:35;0.23;;;0.23;;
11933;SDS011;6026;48.784;9.198;2023-01-15T07:59:01;0.20;;;0.20;;
11933;SDS011;6026;48.784;9.198;2023-01-15T08:01:26;0.10;;;0.10;;
11933;SDS011;6026;48.784;9.198;2023-01-15T08:03:52;0.20;;;0.20;;
11933;SDS011;6026;48.784;9.198;2023-01-15T08:06:17;0.30;;;0.30;;
11933;SDS011;6026;48.784;9.198;2023-01-15T08:08:43;0.30;;;0.30;;
11933;SDS011;6026;48.784;9.198;2023-01-15T08:11:09;0.50;;;0.50;;
11933;SDS011;6026;48.784;9.198;2023-01-15T08:13:53;0.20;;;0.20;;
11933;SDS011;6026;48.784;9.198;2023-01-15T08:16:37;0.20;;;0.20;;
11933;SDS011;6026;48.784;9.198;2023-01-15T08:19:02;0.17;;;0.17;;
11933;SDS011;6026;48.784;9.198;2023-01-15T08:21:29;0.10;;;0.10;;
11933;SDS011;6026;48.784;9.198;2023-01-15T08:23:55;0.20;;;0.20;;
11933;SDS011;6026;48.784;9.198;2023-01-15T08:26:20;0.30;;;0.30;;
11933;SDS011;6026;48.784;9.198;2023-01-15T08:28:46;0.20;;;0.20;;
11933;SDS011;6026;48.784;9.198;2023-01-15T08:31:11;0.20;;;0.20;;
11933;SDS011;6026;48.784;9.198;2023-01-15T08:33:37;0.13;;;0.13;;
11933;SDS011;6026;48.784;9.198;2023-01-15T08:36:03;0.13;;;0.13;;
11933;SDS011;6026;48.784;9.198;2023-01-15T08:38:28;0.27;;;0.27;;
11933;SDS011;6026;48.784;9.198;2023-01-15T08:40:54;0.10;;;0.10;;
11933;SDS011;6026;48.784;9.198;2023-01-15T08:43:23;0.30;;;0.30;;
11933;SDS011;6026;48.784;9.198;2023-01-15T08:45:55;0.20;;;0.20;;
11933;SDS011;6026;48.784;9.198;2023-01-15T08:48:22;0.10;;;0.10;;
11933;SDS011;6026;48.784;9.198;2023-01-15T08:50:48;0.17;;;0.17;;
11933;SDS011;6026;48.784;9.198;2023-01-15T08:53:14;0.17;;;0.17;;
11933;SDS011;6026;48.784;9.198;2023-01-15T08:55:40;0.10;;;0.10;;
11933;SDS011;6026;48.784;9.198;2023-01-15T08:58:06;0.20;;;0.20;;
11933;SDS011;6026;48.784;9.198;2023-01-15T09:00:32;0.10;;;0.10;;
11933;SDS011;6026;48.784;9.198;2023-01-15T09:02:58;0.30;;;0.30;;
11933;SDS011;6026;48.784;9.198;2023-01-15T09:05:24;0.30;;;0.30;;
11933;SDS011;6026;48.784;9.198;2023-01-15T09:07:51;0.20;;;0.20;;
11933;SDS011;6026;48.784;9.198;2023-01-15T09:10:17;0.10;;;0.10;;
11933;SDS011;6026;48.784;9.198;2023-01-15T09:12:43;0.20;;;0.20;;
11933;SDS011;6026;48.784;9.198;2023-01-15T09:15:09;0.20;;;0.20;;
11933;SDS011;6026;48.784;9.198;2023-01-15T09:17:34;0.30;;;0.30;;
11933;SDS011;6026;48.784;9.198;2023-01-15T09:20:04;0.40;;;0.40;;
11933;SDS011;6026;48.784;9.198;2023-01-15T09:22:33;0.20;;;0.20;;
11933;SDS011;6026;48.784;9.198;2023-01-15T09:24:58;0.10;;;0.10;;
11933;SDS011;6026;48.784;9.198;2023-01-15T09:27:24;0.20;;;0.20;;
11933;SDS011;6026;48.784;9.198;2023-01-15T09:29:51;0.20;;;0.20;;
11933;SDS011;6026;48.784;9.198;2023-01-15T09:32:16;0.20;;;0.20;;
11933;SDS011;6026;48.784;9.198;2023-01-15T09:34:42;0.10;;;0.10;;
11933;SDS011;6026;48.784;9.198;2023-01-15T09:37:08;0.10;;;0.10;;
11933;SDS011;6026;48.784;9.198;2023-01-15T09:39:34;0.27;;;0.27;;
11933;SDS011;6026;48.784;9.198;2023-01-15T09:42:04;0.23;;;0.23;;
11933;SDS011;6026;48.784;9.198;2023-01-15T09:45:01;0.20;;;0.20;;
11933;SDS011;6026;48.784;9.198;2023-01-15T09:55:31;0.20;;;0.20;;
11933;SDS011;6026;48.784;9.198;2023-01-15T09:58:01;0.30;;;0.30;;
11933;SDS011;6026;48.784;9.198;2023-01-15T10:00:32;0.20;;;0.20;;
11933;SDS011;6026;48.784;9.198;2023-01-15T10:05:35;0.20;;;0.20;;
11933;SDS011;6026;48.784;9.198;2023-01-15T10:08:23;0.10;;;0.10;;
11933;SDS011;6026;48.784;9.198;2023-01-15T10:10:58;0.20;;;0.20;;
11933;SDS011;6026;48.784;9.198;2023-01-15T10:16:35;0.13;;;0.13;;
11933;SDS011;6026;48.784;9.198;2023-01-15T10:19:01;0.20;;;0.20;;
11933;SDS011;6026;48.784;9.198;2023-01-15T10:21:33;0.30;;;0.30;;
11933;SDS011;6026;48.784;9.198;2023-01-15T10:24:20;0.20;;;0.20;;
11933;SDS011;6026;48.784;9.198;2023-01-15T10:26:56;0.20;;;0.20;;
11933;SDS011;6026;48.784;9.198;2023-01-15T10:37:55;0.10;;;0.10;;
11933;SDS011;6026;48.784;9.198;2023-01-15T10:45:35;0.30;;;0.30;;
11933;SDS011;6026;48.784;9.198;2023-01-15T10:48:17;0.10;;;0.10;;
11933;SDS011;6026;48.784;9.198;2023-01-15T10:50:53;0.20;;;0.20;;
11933;SDS011;6026;48.784;9.198;2023-01-15T10:56:01;0.10;;;0.10;;
11933;SDS011;6026;48.784;9.198;2023-01-15T10:58:35;0.20;;;0.20;;
11933;SDS011;6026;48.784;9.198;2023-01-15T11:01:08;0.17;;;0.17;;
11933;SDS011;6026;48.784;9.198;2023-01-15T11:03:37;0.20;;;0.20;;
11933;SDS011;6026;48.784;9.198;2023-01-15T11:06:06;0.10;;;0.10;;
11933;SDS011;6026;48.784;9.198;2023-01-15T11:08:38;0.20;;;0.20;;
11933;SDS011;6026;48.784;9.198;2023-01-15T11:17:19;0.10;;;0.10;;
11933;SDS011;6026;48.784;9.198;2023-01-15T11:20:42;0.03;;;0.03;;
11933;SDS011;6026;48.784;9.198;2023-01-15T11:23:09;0.10;;;0.10;;
11933;SDS011;6026;48.784;9.198;2023-01-15T11:25:53;0.20;;;0.20;;
11933;SDS011;6026;48.784;9.198;2023-01-15T11:28:39;0.10;;;0.10;;
11933;SDS011;6026;48.784;9.198;2023-01-15T11:31:07;0.10;;;0.10;;
11933;SDS011;6026;48.784;9.198;2023-01-15T11:33:34;0.10;;;0.10;;
11933;SDS011;6026;48.784;9.198;2023-01-15T11:36:03;0.00;;;0.00;;
11933;SDS011;6026;48.784;9.198;2023-01-15T11:38:45;0.10;;;0.10;;
11933;SDS011;6026;48.784;9.198;2023-01-15T11:41:26;0.03;;;0.03;;
11933;SDS011;6026;48.784;9.198;2023-01-15T11:44:12;0.17;;;0.17;;
11933;SDS011;6026;48.784;9.198;2023-01-15T11:46:57;0.10;;;0.10;;
11933;SDS011;6026;48.784;9.198;2023-01-15T11:49:53;0.10;;;0.10;;
11933;SDS011;6026;48.784;9.198;2023-01-15T11:52:41;0.13;;;0.13;;
11933;SDS011;6026;48.784;9.198;2023-01-15T11:55:10;0.10;;;0.10;;
11933;SDS011;6026;48.784;9.198;2023-01-15T11:57:38;0.10;;;0.10;;
11933;SDS011;6026;48.784;9.198;2023-01-15T12:00:04;0.20;;;0.20;;
11933;SDS011;6026;48.784;9.198;2023-01-15T12:02:38;0.03;;;0.03;;
11933;SDS011;6026;48.784;9.198;2023-01-15T12:05:14;0.10;;;0.10;;
11933;SDS011;6026;48.784;9.198;2023-01-15T12:07:43;0.20;;;0.20;;
11933;SDS011;6026;48.784;9.198;2023-01-15T12:10:13;0.10;;;0.10;;
11933;SDS011;6026;48.784;9.198;2023-01-15T12:13:19;0.00;;;0.00;;
11933;SDS011;6026;48.784;9.198;2023-01-15T12:18:46;0.10;;;0.10;;
11933;SDS011;6026;48.784;9.198;2023-01-15T12:21:27;0.10;;;0.10;;
11933;SDS011;6026;48.784;9.198;2023-01-15T12:24:15;0.10;;;0.10;;
11933;SDS011;6026;48.784;9.198;2023-01-15T12:29:36;0.10;;;0.10;;
11933;SDS011;6026;48.784;9.198;2023-01-15T12:32:11;0.10;;;0.10;;
11933;SDS011;6026;48.784;9.198;2023-01-15T12:34:43;0.10;;;0.10;;
11933;SDS011;6026;48.784;9.198;2023-01-15T12:37:31;0.20;;;0.20;;
11933;SDS011;6026;48.784;9.198;2023-01-15T12:42:47;0.10;;;0.10;;
11933;SDS011;6026;48.784;9.198;2023-01-15T12:45:48;0.10;;;0.10;;
11933;SDS011;6026;48.784;9.198;2023-01-15T12:50:55;0.10;;;0.10;;
11933;SDS011;6026;48.784;9.198;2023-01-15T13:01:44;0.10;;;0.10;;
11933;SDS011;6026;48.784;9.198;2023-01-15T13:09:51;0.10;;;0.10;;
11933;SDS011;6026;48.784;9.198;2023-01-15T13:12:32;0.07;;;0.07;;
11933;SDS011;6026;48.784;9.198;2023-01-15T13:14:59;0.10;;;0.10;;
11933;SDS011;6026;48.784;9.198;2023-01-15T13:17:43;0.30;;;0.30;;
11933;SDS011;6026;48.784;9.198;2023-01-15T13:23:06;0.00;;;0.00;;
11933;SDS011;6026;48.784;9.198;2023-01-15T13:26:00;0.10;;;0.10;;
11933;SDS011;6026;48.784;9.198;2023-01-15T13:34:07;0.10;;;0.10;;
11933;SDS011;6026;48.784;9.198;2023-01-15T13:37:03;0.03;;;0.03;;
11933;SDS011;6026;48.784;9.198;2023-01-15T13:39:42;0.20;;;0.20;;
11933;SDS011;6026;48.784;9.198;2023-01-15T13:42:14;0.10;;;0.10;;
11933;SDS011;6026;48.784;9.198;2023-01-15T13:45:57;0.20;;;0.20;;
11933;SDS011;6026;48.784;9.198;2023-01-15T13:48:01;0.00;;;0.00;;
11933;SDS011;6026;48.784;9.198;2023-01-15T13:50:30;0.10;;;0.10;;
11933;SDS011;6026;48.784;9.198;2023-01-15T13:53:01;0.20;;;0.20;;
11933;SDS011;6026;48.784;9.198;2023-01-15T13:55:32;0.20;;;0.20;;
11933;SDS011;6026;48.784;9.198;2023-01-15T13:58:01;0.10;;;0.10;;
11933;SDS011;6026;48.784;9.198;2023-01-15T14:00:34;0.13;;;0.13;;
11933;SDS011;6026;48.784;9.198;2023-01-15T14:05:57;0.10;;;0.10;;
11933;SDS011;6026;48.784;9.198;2023-01-15T14:08:26;0.30;;;0.30;;
11933;SDS011;6026;48.784;9.198;2023-01-15T14:11:28;0.17;;;0.17;;
11933;SDS011;6026;48.784;9.198;2023-01-15T14:16:46;0.10;;;0.10;;
11933;SDS011;6026;48.784;9.198;2023-01-15T14:25:08;0.20;;;0.20;;
11933;SDS011;6026;48.784;9.198;2023-01-15T14:27:57;0.20;;;0.20;;
11933;SDS011;6026;48.784;9.198;2023-01-15T14:36:25;0.20;;;0.20;;
11933;SDS011;6026;48.784;9.198;2023-01-15T14:38:57;0.10;;;0.10;;
11933;SDS011;6026;48.784;9.198;2023-01-15T14:41:35;0.10;;;0.10;;
11933;SDS011;6026;48.784;9.198;2023-01-15T14:44:31;0.17;;;0.17;;
11933;SDS011;6026;48.784;9.198;2023-01-15T14:47:02;0.10;;;0.10;;
11933;SDS011;6026;48.784;9.198;2023-01-15T14:49:41;0.20;;;0.20;;
11933;SDS011;6026;48.784;9.198;2023-01-15T14:52:13;0.20;;;0.20;;
11933;SDS011;6026;48.784;9.198;2023-01-15T14:54:45;0.10;;;0.10;;
11933;SDS011;6026;48.784;9.198;2023-01-15T14:57:11;0.20;;;0.20;;
11933;SDS011;6026;48.784;9.198;2023-01-15T14:59:59;0.10;;;0.10;;
11933;SDS011;6026;48.784;9.198;2023-01-15T15:02:37;0.03;;;0.03;;
11933;SDS011;6026;48.784;9.198;2023-01-15T15:05:12;0.20;;;0.20;;
11933;SDS011;6026;48.784;9.198;2023-01-15T15:07:42;0.20;;;0.20;;
11933;SDS011;6026;48.784;9.198;2023-01-15T15:10:16;0.10;;;0.10;;
11933;SDS011;6026;48.784;9.198;2023-01-15T15:12:56;0.10;;;0.10;;
11933;SDS011;6026;48.784;9.198;2023-01-15T15:18:18;0.10;;;0.10;;
11933;SDS011;6026;48.784;9.198;2023-01-15T15:21:20;0.20;;;0.20;;
11933;SDS011;6026;48.784;9.198;2023-01-15T15:23:58;0.10;;;0.10;;
11933;SDS011;6026;48.784;9.198;2023-01-15T15:26:30;0.10;;;0.10;;
11933;SDS011;6026;48.784;9.198;2023-01-15T15:31:25;0.10;;;0.10;;
11933;SDS011;6026;48.784;9.198;2023-01-15T15:33:53;0.20;;;0.20;;
11933;SDS011;6026;48.784;9.198;2023-01-15T15:36:20;0.10;;;0.10;;
11933;SDS011;6026;48.784;9.198;2023-01-15T15:38:51;0.20;;;0.20;;
11933;SDS011;6026;48.784;9.198;2023-01-15T15:41:18;0.10;;;0.10;;
11933;SDS011;6026;48.784;9.198;2023-01-15T15:44:08;0.10;;;0.10;;
11933;SDS011;6026;48.784;9.198;2023-01-15T15:46:58;0.20;;;0.20;;
11933;SDS011;6026;48.784;9.198;2023-01-15T15:49:42;0.10;;;0.10;;
11933;SDS011;6026;48.784;9.198;2023-01-15T15:52:12;0.10;;;0.10;;
11933;SDS011;6026;48.784;9.198;2023-01-15T15:54:57;0.10;;;0.10;;
11933;SDS011;6026;48.784;9.198;2023-01-15T15:57:24;0.20;;;0.20;;
11933;SDS011;6026;48.784;9.198;2023-01-15T15:59:52;0.10;;;0.10;;
11933;SDS011;6026;48.784;9.198;2023-01-15T16:02:35;0.17;;;0.17;;
11933;SDS011;6026;48.784;9.198;2023-01-15T16:07:50;0.20;;;0.20;;
11933;SDS011;6026;48.784;9.198;2023-01-15T16:10:29;0.07;;;0.07;;
11933;SDS011;6026;48.784;9.198;2023-01-15T16:13:03;0.10;;;0.10;;
11933;SDS011;6026;48.784;9.198;2023-01-15T16:15:32;0.13;;;0.13;;
11933;SDS011;6026;48.784;9.198;2023-01-15T16:18:00;0.20;;;0.20;;
11933;SDS011;6026;48.784;9.198;2023-01-15T16:20:27;0.00;;;0.00;;
11933;SDS011;6026;48.784;9.198;2023-01-15T16:23:00;0.20;;;0.20;;
11933;SDS011;6026;48.784;9.198;2023-01-15T16:25:31;0.10;;;0.10;;
11933;SDS011;6026;48.784;9.198;2023-01-15T16:28:00;0.10;;;0.10;;
11933;SDS011;6026;48.784;9.198;2023-01-15T16:30:27;0.10;;;0.10;;
11933;SDS011;6026;48.784;9.198;2023-01-15T16:32:53;0.10;;;0.10;;
11933;SDS011;6026;48.784;9.198;2023-01-15T16:35:24;0.20;;;0.20;;
11933;SDS011;6026;48.784;9.198;2023-01-15T16:37:52;0.20;;;0.20;;
11933;SDS011;6026;48.784;9.198;2023-01-15T16:40:25;0.10;;;0.10;;
11933;SDS011;6026;48.784;9.198;2023-01-15T16:43:10;0.10;;;0.10;;
11933;SDS011;6026;48.784;9.198;2023-01-15T16:46:05;0.20;;;0.20;;
11933;SDS011;6026;48.784;9.198;2023-01-15T16:48:43;0.00;;;0.00;;
11933;SDS011;6026;48.784;9.198;2023-01-15T16:51:28;0.47;;;0.47;;
11933;SDS011;6026;48.784;9.198;2023-01-15T16:53:59;0.10;;;0.10;;
11933;SDS011;6026;48.784;9.198;2023-01-15T16:59:03;0.10;;;0.10;;
11933;SDS011;6026;48.784;9.198;2023-01-15T17:01:36;0.10;;;0.10;;
11933;SDS011;6026;48.784;9.198;2023-01-15T17:04:16;0.20;;;0.20;;
11933;SDS011;6026;48.784;9.198;2023-01-15T17:06:43;0.10;;;0.10;;
11933;SDS011;6026;48.784;9.198;2023-01-15T17:09:12;0.10;;;0.10;;
11933;SDS011;6026;48.784;9.198;2023-01-15T17:11:39;0.07;;;0.07;;
11933;SDS011;6026;48.784;9.198;2023-01-15T17:14:06;0.00;;;0.00;;
11933;SDS011;6026;48.784;9.198;2023-01-15T17:16:35;0.10;;;0.10;;
11933;SDS011;6026;48.784;9.198;2023-01-15T17:19:03;0.17;;;0.17;;
11933;SDS011;6026;48.784;9.198;2023-01-15T17:21:31;0.10;;;0.10;;
11933;SDS011;6026;48.784;9.198;2023-01-15T17:23:57;0.10;;;0.10;;